Time;durP1;ratioP1;P1;durP2;ratioP2;P2;SDS_P1;SDS_P2;PMS_P1;PMS_P2;Temp;Humidity;BMP_temperature;BMP_pressure;BME280_temperature;BME280_humidity;BME280_pressure;Samples;Min_cycle;Max_cycle;Signal;HPM_P1;HPM_P2
2022/06/25 00:01:52;;;;;;;0.40;0.30;;;;;;;16.91;71.64;92699.88;2048729;70;20681;-75
2022/06/25 00:07:03;;;;;;;0.55;0.25;;;;;;;16.94;70.79;92693.59;2048852;70;20155;-78
2022/06/25 00:09:28;;;;;;;6.53;0.30;;;;;;;17.10;70.46;92702.00;2048894;70;20158;-73
2022/06/25 00:14:39;;;;;;;0.40;0.40;;;;;;;16.74;72.24;92702.09;2048752;70;20212;-74
2022/06/25 00:17:05;;;;;;;2.92;0.52;;;;;;;16.88;71.53;92701.19;2048867;70;20151;-72
2022/06/25 00:19:30;;;;;;;4.25;0.52;;;;;;;16.82;71.72;92704.53;2048371;70;20301;-72
2022/06/25 00:21:56;;;;;;;1.98;0.20;;;;;;;16.81;71.78;92699.47;2047564;70;21068;-71
2022/06/25 00:24:22;;;;;;;1.92;0.35;;;;;;;16.80;71.61;92698.75;2047520;70;20215;-72
2022/06/25 00:26:48;;;;;;;6.15;0.30;;;;;;;16.83;71.49;92697.47;2047534;70;20242;-72
2022/06/25 00:29:15;;;;;;;0.20;0.20;;;;;;;16.72;71.42;92693.50;2047314;70;20253;-74
2022/06/25 00:31:41;;;;;;;0.25;0.20;;;;;;;16.55;72.10;92704.88;2047291;70;20158;-72
2022/06/25 00:34:07;;;;;;;0.57;0.30;;;;;;;16.67;71.30;92706.06;2044694;70;20504;-71
2022/06/25 00:36:32;;;;;;;2.15;0.30;;;;;;;16.58;71.83;92707.13;2044819;70;20505;-72
2022/06/25 00:38:58;;;;;;;5.25;0.38;;;;;;;16.63;71.25;92693.81;2048434;70;20142;-77
2022/06/25 00:41:24;;;;;;;0.75;0.20;;;;;;;16.61;71.35;92708.69;2048084;70;20147;-78
2022/06/25 00:43:50;;;;;;;1.73;0.30;;;;;;;16.69;70.98;92714.69;2048062;70;20146;-78
2022/06/25 00:46:15;;;;;;;1.30;0.20;;;;;;;16.69;71.49;92713.94;2048050;70;20660;-73
2022/06/25 00:48:41;;;;;;;0.30;0.20;;;;;;;16.53;72.11;92711.94;2048199;70;20239;-72
2022/06/25 00:51:12;;;;;;;0.25;0.10;;;;;;;16.75;70.61;92720.63;2048083;70;20319;-72
2022/06/25 00:53:41;;;;;;;2.47;0.30;;;;;;;16.64;71.53;92718.75;2048250;70;20166;-72
2022/06/25 00:56:08;;;;;;;1.10;0.20;;;;;;;16.60;71.64;92718.59;2048169;70;20158;-72
2022/06/25 00:58:38;;;;;;;1.27;0.50;;;;;;;16.59;71.40;92725.66;2048253;70;20642;-72
2022/06/25 01:01:05;;;;;;;1.35;0.40;;;;;;;16.59;71.71;92722.09;2044849;69;20177;-71
2022/06/25 01:03:31;;;;;;;0.63;0.30;;;;;;;16.64;70.93;92715.19;2044808;70;20166;-72
2022/06/25 01:05:57;;;;;;;4.28;0.40;;;;;;;16.41;72.38;92711.47;2048064;70;20595;-74
2022/06/25 01:08:23;;;;;;;0.50;0.30;;;;;;;16.39;72.08;92714.22;2044892;70;20269;-73
2022/06/25 01:10:49;;;;;;;0.47;0.30;;;;;;;16.48;71.46;92716.00;2047292;70;20612;-73
2022/06/25 01:13:18;;;;;;;1.45;0.47;;;;;;;16.38;71.92;92717.72;2047624;70;20157;-74
2022/06/25 01:15:44;;;;;;;1.08;0.40;;;;;;;16.53;70.94;92723.28;2041046;70;20612;-77
2022/06/25 01:18:11;;;;;;;0.95;0.30;;;;;;;16.41;72.20;92717.16;2041497;70;20147;-75
2022/06/25 01:20:37;;;;;;;1.58;0.30;;;;;;;16.36;72.22;92720.47;2041466;70;20559;-77
2022/06/25 01:23:02;;;;;;;0.75;0.38;;;;;;;16.45;71.11;92725.84;2041668;70;20159;-75
2022/06/25 01:25:35;;;;;;;1.55;0.45;;;;;;;16.41;71.83;92722.09;2044895;70;20143;-74
2022/06/25 01:28:02;;;;;;;0.40;0.40;;;;;;;16.30;72.54;92720.22;2045061;69;20596;-74
2022/06/25 01:30:28;;;;;;;2.78;0.40;;;;;;;16.37;72.71;92721.94;2041633;70;20154;-73
2022/06/25 01:32:54;;;;;;;3.17;0.30;;;;;;;16.41;71.85;92717.16;2044986;70;20558;-75
2022/06/25 01:35:20;;;;;;;2.40;0.40;;;;;;;16.38;72.61;92714.88;2045046;70;20162;-74
2022/06/25 01:37:45;;;;;;;5.05;0.35;;;;;;;16.37;72.54;92724.78;2044690;70;20294;-75
2022/06/25 01:40:11;;;;;;;1.88;0.40;;;;;;;16.28;73.43;92720.88;2045041;69;20709;-74
2022/06/25 01:45:21;;;;;;;3.40;0.47;;;;;;;16.39;72.89;92719.91;2041633;70;20208;-72
2022/06/25 01:47:47;;;;;;;0.75;0.30;;;;;;;16.43;72.49;92722.91;2044954;70;20244;-72
2022/06/25 01:50:13;;;;;;;1.25;0.40;;;;;;;16.42;72.39;92724.28;2041588;70;20222;-72
2022/06/25 01:52:40;;;;;;;4.07;0.43;;;;;;;16.39;72.50;92716.31;2041489;70;20156;-75
2022/06/25 01:55:06;;;;;;;4.30;0.40;;;;;;;16.25;73.43;92716.50;2041867;69;20143;-74
2022/06/25 01:57:36;;;;;;;1.50;0.40;;;;;;;16.41;72.47;92713.59;2041564;70;20209;-77
2022/06/25 02:00:05;;;;;;;0.73;0.40;;;;;;;16.49;71.78;92714.63;2041503;70;20150;-77
2022/06/25 02:02:40;;;;;;;1.25;0.35;;;;;;;16.41;72.48;92711.47;2045095;70;20322;-74
2022/06/25 02:05:07;;;;;;;2.50;0.30;;;;;;;16.30;73.00;92701.06;2041762;69;20199;-72
2022/06/25 02:07:34;;;;;;;0.82;0.30;;;;;;;16.31;73.07;92708.22;2044998;70;20134;-72
2022/06/25 02:10:00;;;;;;;5.50;0.45;;;;;;;16.42;72.11;92707.25;2045145;70;20185;-72
2022/06/25 02:12:26;;;;;;;3.83;0.40;;;;;;;16.38;71.75;92709.91;2041682;70;20257;-73
2022/06/25 02:14:52;;;;;;;0.63;0.30;;;;;;;16.30;72.18;92708.88;2044984;70;20242;-73
2022/06/25 02:17:18;;;;;;;2.90;0.40;;;;;;;16.16;73.03;92711.88;2045134;70;20139;-73
2022/06/25 02:19:44;;;;;;;2.53;0.40;;;;;;;16.27;71.93;92705.97;2045125;70;20143;-72
2022/06/25 02:22:14;;;;;;;3.88;0.32;;;;;;;16.27;71.69;92705.97;2045133;70;20143;-72
2022/06/25 02:24:42;;;;;;;2.08;0.30;;;;;;;16.25;71.68;92708.69;2045048;70;20151;-72
2022/06/25 02:27:10;;;;;;;4.13;0.32;;;;;;;15.99;72.70;92711.22;2045081;70;20169;-72
2022/06/25 02:29:36;;;;;;;2.58;0.40;;;;;;;16.06;72.25;92714.31;2044815;70;20143;-73
2022/06/25 02:32:03;;;;;;;4.32;0.50;;;;;;;16.13;71.48;92716.03;2045072;70;20147;-73
2022/06/25 02:34:30;;;;;;;1.02;0.30;;;;;;;15.91;72.64;92719.41;2041830;70;20131;-72
2022/06/25 02:36:56;;;;;;;1.58;0.40;;;;;;;15.96;72.24;92709.66;2045149;70;20139;-73
2022/06/25 02:39:24;;;;;;;3.58;0.30;;;;;;;15.89;72.34;92715.75;2041655;70;20208;-73
2022/06/25 02:41:50;;;;;;;4.63;0.60;;;;;;;15.88;72.21;92719.97;2041767;70;20587;-73
2022/06/25 02:44:17;;;;;;;2.15;0.30;;;;;;;15.90;71.66;92717.94;2041636;70;20155;-72
2022/06/25 02:46:47;;;;;;;1.08;0.40;;;;;;;15.81;72.16;92730.34;2041747;70;20139;-73
2022/06/25 02:49:13;;;;;;;1.65;0.30;;;;;;;15.80;72.15;92726.03;2041822;70;20144;-73
2022/06/25 02:51:40;;;;;;;2.45;0.40;;;;;;;15.84;72.09;92734.72;2036110;70;20163;-73
2022/06/25 02:54:06;;;;;;;2.88;0.38;;;;;;;15.85;71.54;92727.69;2041657;70;20235;-73
2022/06/25 02:59:17;;;;;;;2.33;0.47;;;;;;;15.67;72.57;92724.78;2041579;70;20639;-73
2022/06/25 03:01:44;;;;;;;0.85;0.40;;;;;;;15.66;72.33;92716.91;2041595;70;20163;-73
2022/06/25 03:04:11;;;;;;;4.28;0.50;;;;;;;15.58;73.21;92725.81;2041721;70;20151;-72
2022/06/25 03:06:37;;;;;;;1.05;0.30;;;;;;;15.60;72.86;92737.22;2041581;70;20150;-74
2022/06/25 03:09:05;;;;;;;2.35;0.45;;;;;;;15.69;72.08;92736.22;2041633;70;20297;-76
2022/06/25 03:11:31;;;;;;;2.97;0.50;;;;;;;15.59;72.78;92727.25;2040839;70;20258;-78
2022/06/25 03:13:58;;;;;;;0.45;0.40;;;;;;;15.62;72.64;92728.06;2040992;70;20585;-74
2022/06/25 03:16:25;;;;;;;3.60;0.40;;;;;;;15.46;73.10;92740.19;2040952;70;20206;-76
2022/06/25 03:18:51;;;;;;;1.10;0.47;;;;;;;15.71;71.86;92732.72;2041426;70;20227;-74
2022/06/25 03:21:29;;;;;;;8.50;0.60;;;;;;;15.46;73.17;92734.50;2042167;70;20241;-74
2022/06/25 03:24:00;;;;;;;2.47;0.40;;;;;;;15.60;72.92;92739.34;2041648;70;20159;-74
2022/06/25 03:26:26;;;;;;;2.58;0.50;;;;;;;15.58;72.64;92750.56;2041627;70;20144;-73
2022/06/25 03:28:55;;;;;;;1.65;0.50;;;;;;;15.21;73.99;92754.66;2041500;70;20221;-73
2022/06/25 03:31:23;;;;;;;1.85;0.50;;;;;;;15.45;73.29;92755.75;2044334;70;20151;-73
2022/06/25 03:33:49;;;;;;;2.50;0.50;;;;;;;15.55;73.07;92744.09;2041482;70;20148;-73
2022/06/25 03:36:27;;;;;;;2.42;0.60;;;;;;;15.60;72.60;92742.91;2041468;70;20174;-74
2022/06/25 03:38:54;;;;;;;4.28;0.50;;;;;;;15.48;72.80;92748.03;2041606;70;20194;-74
2022/06/25 03:41:32;;;;;;;1.08;0.40;;;;;;;15.51;72.90;92741.09;2044356;70;20171;-74
2022/06/25 03:44:12;;;;;;;2.80;0.47;;;;;;;15.52;72.24;92751.78;2041411;70;20170;-74
2022/06/25 03:46:39;;;;;;;2.42;0.52;;;;;;;15.57;73.07;92754.81;2041602;70;20187;-74
2022/06/25 03:49:06;;;;;;;1.23;0.57;;;;;;;15.45;74.15;92750.06;2041420;70;20139;-73
2022/06/25 03:51:54;;;;;;;1.98;0.60;;;;;;;15.55;73.09;92749.78;2041388;70;20166;-75
2022/06/25 03:54:21;;;;;;;0.98;0.50;;;;;;;15.69;72.17;92750.41;2041637;70;20179;-73
2022/06/25 03:56:47;;;;;;;1.90;0.60;;;;;;;15.55;73.08;92751.88;2044355;70;20198;-75
2022/06/25 03:59:13;;;;;;;2.95;0.50;;;;;;;15.59;73.20;92749.22;2041375;70;20513;-80
2022/06/25 04:01:38;;;;;;;5.60;0.68;;;;;;;15.51;73.59;92750.31;2044396;70;20186;-79
2022/06/25 04:04:06;;;;;;;2.63;0.50;;;;;;;15.58;72.85;92750.56;2041676;70;20151;-80
2022/06/25 04:06:32;;;;;;;0.57;0.50;;;;;;;15.56;73.14;92756.19;2042321;70;20146;-80
2022/06/25 04:09:00;;;;;;;4.10;0.60;;;;;;;15.60;73.54;92759.94;2041659;70;20191;-81
2022/06/25 04:11:26;;;;;;;2.58;0.55;;;;;;;15.58;73.33;92764.75;2041552;70;20183;-79
2022/06/25 04:13:54;;;;;;;1.75;0.40;;;;;;;15.56;73.10;92761.84;2041539;70;20151;-78
2022/06/25 04:16:22;;;;;;;1.52;0.60;;;;;;;15.49;73.60;92753.09;2041717;70;20246;-75
2022/06/25 04:18:48;;;;;;;3.33;0.52;;;;;;;15.40;74.43;92753.38;2041673;70;20239;-75
2022/06/25 04:21:16;;;;;;;1.20;0.50;;;;;;;15.44;73.64;92756.38;2041662;70;20221;-74
2022/06/25 04:23:42;;;;;;;2.50;0.50;;;;;;;15.46;73.63;92745.84;2041595;70;20148;-74
2022/06/25 04:26:10;;;;;;;1.98;0.52;;;;;;;15.56;72.78;92754.06;2041587;70;20147;-74
2022/06/25 04:31:34;;;;;;;0.40;0.40;;;;;;;15.44;73.14;92759.22;2041487;70;20520;-74
2022/06/25 04:34:01;;;;;;;0.30;0.30;;;;;;;15.39;73.87;92769.66;2041582;70;20171;-75
2022/06/25 04:36:27;;;;;;;11.23;0.80;;;;;;;15.40;73.81;92756.22;2042157;70;20175;-74
2022/06/25 04:38:56;;;;;;;0.60;0.50;;;;;;;15.32;73.97;92748.06;2041573;70;20192;-75
2022/06/25 04:41:22;;;;;;;2.55;0.30;;;;;;;15.43;72.93;92755.66;2042242;70;20155;-74
2022/06/25 04:43:52;;;;;;;1.70;0.30;;;;;;;15.43;73.10;92749.25;2041519;70;20242;-75
2022/06/25 04:46:23;;;;;;;3.28;0.40;;;;;;;15.32;73.77;92748.06;2041665;70;20159;-79
2022/06/25 04:48:50;;;;;;;2.72;0.52;;;;;;;15.45;72.16;92747.25;2041546;70;20210;-77
2022/06/25 04:51:23;;;;;;;3.83;0.40;;;;;;;15.38;72.70;92751.16;2042257;70;20143;-78
2022/06/25 04:53:55;;;;;;;1.67;0.40;;;;;;;15.22;73.76;92756.13;2044418;70;20158;-80
2022/06/25 04:56:28;;;;;;;1.58;0.57;;;;;;;15.24;73.65;92759.78;2042244;70;20175;-76
2022/06/25 04:58:55;;;;;;;0.70;0.70;;;;;;;15.05;74.32;92762.44;2041468;70;20247;-75
2022/06/25 05:01:47;;;;;;;5.25;0.90;;;;;;;15.25;73.63;92766.19;2040858;70;20563;-74
2022/06/25 05:04:12;;;;;;;1.25;0.95;;;;;;;15.25;73.86;92766.91;2038769;70;20601;-76
2022/06/25 05:06:38;;;;;;;6.45;0.85;;;;;;;15.40;72.27;92773.25;2041494;70;20154;-76
2022/06/25 05:09:04;;;;;;;2.13;0.98;;;;;;;14.41;77.77;92770.84;2041426;70;20652;-74
2022/06/25 05:11:30;;;;;;;3.20;0.98;;;;;;;14.99;75.27;92768.59;2041334;70;20651;-75
2022/06/25 05:13:55;;;;;;;2.83;1.10;;;;;;;15.15;74.61;92769.28;2041333;70;20132;-72
2022/06/25 05:16:21;;;;;;;3.85;0.90;;;;;;;15.28;74.40;92778.38;2041472;70;20566;-72
2022/06/25 05:18:48;;;;;;;2.40;1.20;;;;;;;14.91;75.82;92776.72;2041426;70;20521;-72
2022/06/25 05:21:15;;;;;;;2.45;0.90;;;;;;;14.97;75.81;92783.38;2041424;70;20155;-72
2022/06/25 05:23:41;;;;;;;4.10;1.08;;;;;;;15.32;74.55;92782.09;2041367;70;20155;-73
2022/06/25 05:26:07;;;;;;;4.35;1.17;;;;;;;15.24;75.47;92782.47;2041349;70;20178;-73
2022/06/25 05:28:33;;;;;;;1.38;1.20;;;;;;;15.42;74.14;92791.06;2041716;70;20143;-73
2022/06/25 05:30:59;;;;;;;1.88;1.20;;;;;;;15.43;74.03;92786.84;2041297;70;20155;-73
2022/06/25 05:33:25;;;;;;;1.10;1.00;;;;;;;15.31;74.57;92782.75;2041899;70;20147;-78
2022/06/25 05:35:53;;;;;;;1.20;1.10;;;;;;;15.42;74.33;92785.38;2041998;70;20527;-76
2022/06/25 05:38:19;;;;;;;1.55;1.20;;;;;;;15.46;74.76;92779.16;2041488;70;20143;-77
2022/06/25 05:40:45;;;;;;;2.42;1.35;;;;;;;15.43;75.09;92777.59;2042151;70;20235;-76
2022/06/25 05:43:10;;;;;;;1.30;1.20;;;;;;;15.51;74.99;92784.38;2041792;70;20143;-75
2022/06/25 05:45:36;;;;;;;3.60;1.10;;;;;;;15.58;74.27;92782.53;2041855;70;20163;-73
2022/06/25 05:48:02;;;;;;;4.63;1.20;;;;;;;15.70;71.79;92788.03;2041969;70;20147;-73
2022/06/25 05:50:28;;;;;;;2.15;1.17;;;;;;;15.71;72.52;92798.00;2041947;70;20162;-73
2022/06/25 05:52:55;;;;;;;1.50;1.15;;;;;;;15.71;71.85;92798.00;2041830;70;20159;-73
2022/06/25 05:55:22;;;;;;;5.40;1.25;;;;;;;16.19;69.83;92807.88;2041911;70;20151;-74
2022/06/25 05:57:48;;;;;;;3.20;1.67;;;;;;;16.29;70.91;92810.41;2041959;70;20162;-74
2022/06/25 06:00:14;;;;;;;2.72;1.70;;;;;;;16.53;69.51;92802.13;2041821;70;20231;-72
2022/06/25 06:02:40;;;;;;;2.78;1.70;;;;;;;16.60;71.87;92803.84;2041837;70;20172;-73
2022/06/25 06:05:06;;;;;;;2.15;1.42;;;;;;;16.64;72.26;92801.16;2041869;70;20147;-75
2022/06/25 06:07:32;;;;;;;3.05;1.40;;;;;;;17.07;67.69;92804.97;2042179;70;20139;-76
2022/06/25 06:09:57;;;;;;;2.47;1.77;;;;;;;16.91;69.28;92802.97;2041339;70;20212;-78
2022/06/25 06:12:23;;;;;;;2.85;1.75;;;;;;;17.11;67.81;92802.28;2044654;70;20615;-77
2022/06/25 06:14:49;;;;;;;6.35;1.70;;;;;;;16.97;70.33;92806.03;2041965;70;20210;-74
2022/06/25 06:17:14;;;;;;;2.80;1.65;;;;;;;17.05;69.67;92805.63;2045182;70;20146;-74
2022/06/25 06:19:40;;;;;;;4.38;2.00;;;;;;;16.85;71.19;92805.56;2045114;70;20147;-74
2022/06/25 06:22:06;;;;;;;5.07;1.80;;;;;;;16.21;72.16;92801.53;2045426;70;20600;-74
2022/06/25 06:24:31;;;;;;;2.55;1.90;;;;;;;16.41;72.18;92802.38;2045247;70;20301;-73
2022/06/25 06:26:57;;;;;;;4.38;1.90;;;;;;;16.71;70.57;92800.03;2045149;70;20191;-73
2022/06/25 06:29:23;;;;;;;1.77;1.65;;;;;;;17.01;68.69;92802.63;2041456;70;20150;-73
2022/06/25 06:31:48;;;;;;;4.05;1.92;;;;;;;16.91;70.76;92808.66;2044995;70;20209;-73
2022/06/25 06:34:14;;;;;;;4.10;2.20;;;;;;;16.86;69.78;92798.50;2045103;70;20146;-73
2022/06/25 06:36:40;;;;;;;2.40;1.98;;;;;;;16.82;69.97;92795.50;2045131;70;20600;-75
2022/06/25 06:39:05;;;;;;;2.20;1.95;;;;;;;16.94;69.80;92795.97;2045246;70;20147;-76
2022/06/25 06:41:31;;;;;;;2.38;1.50;;;;;;;17.08;70.16;92790.09;2039272;70;20147;-73
2022/06/25 06:43:57;;;;;;;1.67;1.58;;;;;;;17.10;70.00;92787.34;2045061;70;20170;-77
2022/06/25 06:46:22;;;;;;;1.63;1.40;;;;;;;17.11;68.05;92788.78;2045215;70;20186;-76
2022/06/25 06:48:48;;;;;;;3.17;1.48;;;;;;;17.35;66.35;92782.56;2045179;70;20147;-73
2022/06/25 06:51:13;;;;;;;3.42;1.70;;;;;;;17.40;69.77;92784.16;2045224;70;20250;-74
2022/06/25 06:53:39;;;;;;;4.70;1.63;;;;;;;17.60;67.22;92773.53;2045303;70;20184;-74
2022/06/25 06:56:05;;;;;;;1.83;1.65;;;;;;;17.76;67.67;92781.94;2045926;70;20583;-74
2022/06/25 06:58:30;;;;;;;4.30;1.50;;;;;;;18.02;67.37;92777.16;2045529;70;20147;-74
2022/06/25 07:00:56;;;;;;;2.53;1.90;;;;;;;18.16;66.67;92771.22;2045510;70;20494;-74
2022/06/25 07:03:22;;;;;;;2.22;1.70;;;;;;;18.28;66.25;92765.94;2045401;70;20143;-73
2022/06/25 07:05:48;;;;;;;1.55;1.10;;;;;;;18.40;65.33;92777.00;2045476;70;20532;-73
2022/06/25 07:08:19;;;;;;;1.85;1.20;;;;;;;18.43;65.40;92778.53;2045489;70;20175;-73
2022/06/25 07:10:45;;;;;;;4.55;1.30;;;;;;;18.54;64.20;92776.75;2045495;70;20187;-73
2022/06/25 07:13:10;;;;;;;2.03;1.17;;;;;;;18.39;63.98;92774.81;2045410;70;20147;-75
2022/06/25 07:15:36;;;;;;;1.33;1.10;;;;;;;18.43;64.54;92772.13;2045344;70;20177;-74
2022/06/25 07:18:02;;;;;;;1.45;1.15;;;;;;;17.64;66.06;92775.78;2045591;70;20591;-77
2022/06/25 07:20:27;;;;;;;1.40;1.00;;;;;;;18.14;64.44;92779.69;2045442;70;20609;-77
2022/06/25 07:22:53;;;;;;;2.00;1.20;;;;;;;17.88;65.45;92770.97;2045418;70;20139;-73
2022/06/25 07:25:19;;;;;;;1.20;1.10;;;;;;;18.14;64.72;92776.84;2045334;69;20147;-73
2022/06/25 07:27:46;;;;;;;3.13;1.20;;;;;;;18.37;63.72;92769.03;2045193;70;20161;-75
2022/06/25 07:30:12;;;;;;;2.28;1.20;;;;;;;18.25;64.82;92769.38;2044822;70;20233;-78
2022/06/25 07:32:38;;;;;;;2.35;1.00;;;;;;;18.58;63.23;92767.59;2045154;70;20171;-74
2022/06/25 07:35:04;;;;;;;1.73;1.10;;;;;;;18.76;62.87;92773.91;2045220;70;20196;-74
2022/06/25 07:37:30;;;;;;;1.00;0.90;;;;;;;18.83;62.92;92780.53;2045327;69;20151;-75
2022/06/25 07:39:55;;;;;;;1.58;0.90;;;;;;;19.13;62.23;92767.19;2045526;70;20147;-74
2022/06/25 07:42:21;;;;;;;0.88;0.80;;;;;;;18.85;62.31;92774.91;2045541;70;20139;-78
2022/06/25 07:44:46;;;;;;;0.98;0.88;;;;;;;19.25;61.95;92767.56;2045481;70;20165;-82
2022/06/25 07:47:12;;;;;;;1.00;1.00;;;;;;;19.55;60.72;92764.13;2045767;70;20154;-79
2022/06/25 07:52:22;;;;;;;1.73;0.77;;;;;;;19.70;59.95;92765.28;2045885;70;20146;-79
2022/06/25 07:54:48;;;;;;;2.00;0.80;;;;;;;19.50;60.28;92768.28;2046348;70;20216;-80
2022/06/25 07:57:16;;;;;;;0.90;0.80;;;;;;;19.43;61.69;92760.94;2046048;70;20151;-82
2022/06/25 07:59:43;;;;;;;4.28;2.33;;;;;;;19.79;62.64;92752.69;2046037;70;20609;-74
2022/06/25 08:02:10;;;;;;;0.80;0.77;;;;;;;19.73;61.82;92753.25;2043060;70;20151;-74
2022/06/25 08:04:36;;;;;;;1.25;1.00;;;;;;;19.00;60.79;92748.97;2046303;70;20166;-76
2022/06/25 08:07:03;;;;;;;1.10;0.95;;;;;;;19.49;61.29;92744.72;2046195;70;20237;-79
2022/06/25 08:09:29;;;;;;;1.48;1.00;;;;;;;19.69;61.60;92747.44;2042872;70;20151;-75
2022/06/25 08:11:55;;;;;;;1.30;1.15;;;;;;;20.12;61.36;92745.00;2042687;70;20151;-75
2022/06/25 08:14:21;;;;;;;3.05;0.98;;;;;;;19.99;60.30;92747.53;2042477;70;20139;-75
2022/06/25 08:16:47;;;;;;;0.88;0.88;;;;;;;19.70;60.47;92739.59;2045900;70;20188;-75
2022/06/25 08:19:12;;;;;;;1.05;0.95;;;;;;;19.63;58.88;92738.69;2042714;70;20529;-74
2022/06/25 08:21:38;;;;;;;1.67;0.80;;;;;;;20.27;59.59;92741.09;2045931;70;20153;-74
2022/06/25 08:24:04;;;;;;;0.70;0.70;;;;;;;20.71;60.53;92735.03;2045890;70;20508;-75
2022/06/25 08:26:30;;;;;;;5.03;1.20;;;;;;;21.04;60.38;92731.53;2045637;70;20155;-77
2022/06/25 08:28:56;;;;;;;0.90;0.80;;;;;;;21.42;58.76;92725.22;2045548;69;20640;-76
2022/06/25 08:31:24;;;;;;;1.42;0.80;;;;;;;21.12;57.39;92727.38;2045609;69;20135;-77
2022/06/25 08:33:50;;;;;;;4.15;0.90;;;;;;;21.79;55.04;92725.94;2045639;70;20241;-74
2022/06/25 08:36:16;;;;;;;1.00;0.90;;;;;;;21.18;55.58;92730.41;2045567;70;20578;-77
2022/06/25 08:38:41;;;;;;;1.50;0.80;;;;;;;22.35;56.77;92724.84;2045647;70;20142;-78
2022/06/25 08:41:08;;;;;;;0.50;0.50;;;;;;;23.22;55.75;92714.75;2045692;70;20216;-76
2022/06/25 08:43:34;;;;;;;0.80;0.70;;;;;;;23.48;52.66;92713.69;2045592;70;20605;-76
2022/06/25 08:46:00;;;;;;;1.35;0.80;;;;;;;23.48;49.62;92711.53;2042336;70;20135;-73
2022/06/25 08:48:34;;;;;;;5.55;0.68;;;;;;;23.81;49.52;92715.53;2045605;70;20596;-75
2022/06/25 08:51:01;;;;;;;0.70;0.52;;;;;;;24.05;49.79;92711.50;2045564;70;20191;-74
2022/06/25 08:53:32;;;;;;;0.70;0.70;;;;;;;24.14;50.63;92710.16;2045554;70;20178;-76
2022/06/25 08:55:59;;;;;;;1.95;0.60;;;;;;;24.12;49.25;92701.50;2045758;70;20170;-75
2022/06/25 08:58:24;;;;;;;1.38;0.70;;;;;;;24.30;48.94;92698.09;2045733;70;20239;-76
2022/06/25 09:00:50;;;;;;;1.02;0.60;;;;;;;25.09;50.89;92692.31;2045652;70;20671;-78
2022/06/25 09:03:15;;;;;;;2.35;0.60;;;;;;;24.94;45.44;92693.63;2045703;70;20167;-76
2022/06/25 09:05:43;;;;;;;2.58;0.80;;;;;;;25.84;46.04;92692.72;2045824;70;20155;-79
2022/06/25 09:08:13;;;;;;;1.25;0.70;;;;;;;24.06;47.04;92684.94;2045786;70;20131;-78
2022/06/25 09:10:40;;;;;;;2.88;0.90;;;;;;;25.39;45.32;92680.25;2045609;70;20237;-80
2022/06/25 09:13:09;;;;;;;1.50;0.57;;;;;;;25.56;43.73;92672.38;2045637;70;20208;-81
2022/06/25 09:15:39;;;;;;;1.00;0.52;;;;;;;24.89;43.57;92677.75;2045545;70;20159;-79
2022/06/25 09:18:13;;;;;;;0.90;0.50;;;;;;;25.05;45.00;92669.19;2046026;70;20217;-77
2022/06/25 09:20:55;;;;;;;0.57;0.57;;;;;;;25.23;43.22;92666.47;2045554;70;20154;-81
2022/06/25 09:23:21;;;;;;;1.52;0.55;;;;;;;25.82;44.60;92655.22;2045526;70;20238;-77
2022/06/25 09:26:00;;;;;;;0.50;0.50;;;;;;;23.86;45.35;92653.06;2045609;70;20179;-77
2022/06/25 09:28:32;;;;;;;0.88;0.88;;;;;;;25.38;44.34;92649.97;2045468;70;20150;-77
2022/06/25 09:30:59;;;;;;;1.83;0.55;;;;;;;25.88;44.68;92651.63;2045567;70;20175;-78
2022/06/25 09:33:25;;;;;;;1.92;0.93;;;;;;;26.35;43.02;92640.91;2045294;70;20175;-75
2022/06/25 09:35:51;;;;;;;0.47;0.47;;;;;;;25.02;43.61;92641.84;2045559;70;20147;-74
2022/06/25 09:38:18;;;;;;;0.90;0.57;;;;;;;26.42;45.00;92646.69;2042454;70;20764;-77
2022/06/25 09:40:51;;;;;;;0.40;0.40;;;;;;;26.89;40.06;92640.91;2045849;70;20221;-76
2022/06/25 09:43:22;;;;;;;2.38;0.60;;;;;;;25.43;43.52;92637.03;2042526;70;20174;-76
2022/06/25 09:45:51;;;;;;;0.47;0.45;;;;;;;26.85;42.06;92633.00;2045657;70;20269;-78
2022/06/25 09:48:26;;;;;;;0.47;0.47;;;;;;;26.46;43.06;92638.06;2042348;70;20155;-78
2022/06/25 09:51:29;;;;;;;0.55;0.50;;;;;;;25.41;41.38;92636.31;2045507;70;20147;-77
2022/06/25 09:54:00;;;;;;;0.50;0.50;;;;;;;27.11;40.95;92629.34;2045700;70;20200;-78
2022/06/25 09:56:33;;;;;;;0.40;0.40;;;;;;;27.89;41.15;92626.19;2045820;70;20151;-77
2022/06/25 09:58:59;;;;;;;1.65;0.40;;;;;;;27.85;39.81;92612.47;2045837;70;20528;-79
2022/06/25 10:01:29;;;;;;;0.50;0.50;;;;;;;26.43;40.71;92610.59;2042450;70;20251;-79
2022/06/25 10:03:55;;;;;;;1.85;0.40;;;;;;;27.66;40.66;92617.59;2045511;70;20143;-76
2022/06/25 10:06:23;;;;;;;0.50;0.47;;;;;;;28.08;40.53;92619.56;2045612;70;20603;-76
2022/06/25 10:08:52;;;;;;;2.25;0.43;;;;;;;28.62;39.07;92614.16;2042503;70;20225;-77
2022/06/25 10:11:20;;;;;;;0.43;0.43;;;;;;;28.38;38.21;92606.38;2042319;70;20170;-77
2022/06/25 10:13:50;;;;;;;0.68;0.60;;;;;;;28.17;37.49;92597.09;2045582;70;20628;-82
2022/06/25 10:16:18;;;;;;;0.70;0.50;;;;;;;28.65;37.08;92591.72;2045600;70;20147;-81
2022/06/25 10:18:44;;;;;;;0.40;0.40;;;;;;;29.32;38.00;92599.75;2045623;70;20151;-81
2022/06/25 10:21:12;;;;;;;0.55;0.50;;;;;;;29.11;36.71;92591.28;2045458;70;20142;-78
2022/06/25 10:23:40;;;;;;;0.95;0.50;;;;;;;30.44;37.05;92597.59;2045481;70;20697;-78
2022/06/25 10:26:07;;;;;;;1.08;0.30;;;;;;;29.81;33.82;92591.19;2045505;70;20157;-77
2022/06/25 10:28:41;;;;;;;1.35;0.50;;;;;;;30.35;33.65;92579.59;2046169;70;20155;-78
2022/06/25 10:31:11;;;;;;;1.10;0.43;;;;;;;31.05;33.82;92582.78;2046879;70;20131;-79
2022/06/25 10:33:57;;;;;;;0.70;0.57;;;;;;;30.87;33.87;92586.03;2046676;70;20655;-77
2022/06/25 10:36:50;;;;;;;1.75;0.30;;;;;;;31.29;33.39;92564.19;2046966;70;20234;-81
2022/06/25 10:39:27;;;;;;;0.30;0.30;;;;;;;30.85;33.13;92560.63;2046624;70;20146;-80
2022/06/25 10:45:06;;;;;;;0.57;0.40;;;;;;;32.68;29.12;92555.41;2046774;70;20331;-80
2022/06/25 10:47:41;;;;;;;0.73;0.40;;;;;;;33.56;29.38;92550.94;2046735;70;20139;-77
2022/06/25 10:50:31;;;;;;;1.40;0.73;;;;;;;34.26;27.98;92560.59;2046606;70;20258;-78
2022/06/25 10:55:38;;;;;;;0.38;0.30;;;;;;;33.21;26.99;92550.41;2046515;70;20628;-79
2022/06/25 10:58:16;;;;;;;1.67;0.10;;;;;;;33.84;26.27;92537.72;2046570;70;20233;-76
2022/06/25 11:00:46;;;;;;;0.43;0.20;;;;;;;33.23;26.56;92541.63;2046540;70;20143;-78
2022/06/25 11:03:12;;;;;;;2.38;0.28;;;;;;;33.60;24.82;92542.06;2046374;70;20171;-82
2022/06/25 11:05:45;;;;;;;0.75;0.20;;;;;;;37.08;21.86;92542.44;2046468;70;20166;-82
2022/06/25 11:08:11;;;;;;;0.75;0.10;;;;;;;40.36;20.55;92552.47;2046488;70;20154;-80
2022/06/25 11:10:39;;;;;;;1.38;0.20;;;;;;;40.25;18.94;92548.69;2046668;70;20143;-79
2022/06/25 11:13:05;;;;;;;0.75;0.28;;;;;;;42.43;18.11;92550.03;2046716;70;20151;-80
2022/06/25 11:15:44;;;;;;;0.60;0.28;;;;;;;38.85;18.43;92534.44;2046646;70;20493;-78
2022/06/25 11:18:13;;;;;;;2.53;0.20;;;;;;;42.20;16.48;92533.69;2046548;70;20179;-77
2022/06/25 11:20:40;;;;;;;0.25;0.10;;;;;;;42.28;15.72;92527.28;2046519;70;20517;-77
2022/06/25 11:23:11;;;;;;;2.38;0.20;;;;;;;41.25;16.17;92526.09;2046761;70;20158;-76
2022/06/25 11:31:15;;;;;;;0.28;0.20;;;;;;;43.02;13.54;92516.66;2044087;70;20287;-78
2022/06/25 11:33:43;;;;;;;0.15;0.10;;;;;;;46.06;14.66;92525.38;2046677;70;20181;-74
2022/06/25 11:36:10;;;;;;;0.52;0.10;;;;;;;47.61;13.93;92518.84;2046763;70;20147;-75
2022/06/25 11:38:36;;;;;;;0.30;0.20;;;;;;;44.12;13.07;92512.88;2047226;70;20205;-76
2022/06/25 11:41:03;;;;;;;0.43;0.10;;;;;;;43.30;13.91;92502.22;2046548;70;20592;-83
2022/06/25 11:43:29;;;;;;;1.08;0.30;;;;;;;45.93;11.64;92506.38;2045886;70;20157;-82
2022/06/25 11:45:57;;;;;;;0.20;0.10;;;;;;;47.50;12.29;92506.38;2045966;70;20139;-78
2022/06/25 11:48:30;;;;;;;0.20;0.10;;;;;;;47.13;12.17;92500.47;2045802;70;20298;-80
2022/06/25 11:51:00;;;;;;;0.30;0.17;;;;;;;45.76;11.27;92501.66;2045787;70;20171;-79
2022/06/25 11:53:27;;;;;;;0.75;0.15;;;;;;;46.63;12.65;92494.09;2045743;70;20143;-76
2022/06/25 11:56:18;;;;;;;1.27;0.50;;;;;;;48.67;13.01;92497.09;2046192;70;20173;-75
2022/06/25 11:58:45;;;;;;;0.17;0.10;;;;;;;49.22;10.64;92494.47;2048119;70;20146;-75
2022/06/25 12:01:11;;;;;;;0.70;0.35;;;;;;;46.08;12.92;92483.56;2045449;70;20143;-77
2022/06/25 12:03:38;;;;;;;0.73;0.17;;;;;;;46.10;12.55;92483.41;2048904;70;20275;-76
2022/06/25 12:06:05;;;;;;;0.68;0.20;;;;;;;42.34;14.29;92464.09;2048930;70;20146;-76